Time;durP1;ratioP1;P1;durP2;ratioP2;P2;SDS_P1;SDS_P2;PMS_P1;PMS_P2;Temp;Humidity;BMP_temperature;BMP_pressure;BME280_temperature;BME280_humidity;BME280_pressure;Samples;Min_cycle;Max_cycle;Signal;HPM_P1;HPM_P2
2023/04/24 00:00:47;;;;;;;10.13;5.55;;;11.00;99.90;;;;;;4992641;28;20087;-82
2023/04/24 00:03:33;;;;;;;10.77;6.30;;;11.00;99.90;;;;;;4974876;28;20096;-83
2023/04/24 00:06:19;;;;;;;11.02;5.93;;;11.00;99.90;;;;;;4975010;28;20407;-82
2023/04/24 00:09:05;;;;;;;10.02;5.38;;;11.00;99.90;;;;;;4992299;28;20058;-81
2023/04/24 00:11:53;;;;;;;11.90;6.45;;;11.00;99.90;;;;;;4974878;28;20133;-81
2023/04/24 00:14:39;;;;;;;9.25;6.10;;;11.00;99.90;;;;;;4974833;28;20108;-81
2023/04/24 00:17:25;;;;;;;11.70;6.13;;;11.00;99.90;;;;;;4974539;28;20062;-83
2023/04/24 00:20:11;;;;;;;10.27;6.22;;;11.00;99.90;;;;;;4974803;28;20074;-81
2023/04/24 00:22:57;;;;;;;10.95;5.45;;;11.00;99.90;;;;;;4974841;28;20062;-82
2023/04/24 00:25:43;;;;;;;12.32;6.00;;;10.90;99.90;;;;;;4962479;28;20062;-82
2023/04/24 00:28:30;;;;;;;9.18;6.07;;;10.90;99.90;;;;;;4973732;28;20054;-81
2023/04/24 00:31:16;;;;;;;10.23;5.80;;;11.00;99.90;;;;;;4974067;28;20093;-81
2023/04/24 00:34:03;;;;;;;10.60;5.65;;;10.90;99.90;;;;;;4973957;28;20062;-82
2023/04/24 00:36:51;;;;;;;9.70;5.53;;;10.90;99.90;;;;;;4992195;28;20060;-82
2023/04/24 00:39:37;;;;;;;10.77;5.90;;;10.90;99.90;;;;;;4974511;28;20125;-82
2023/04/24 00:42:24;;;;;;;8.88;5.68;;;10.90;99.90;;;;;;4974685;28;20050;-82
2023/04/24 00:45:11;;;;;;;11.90;6.03;;;10.90;99.90;;;;;;4960389;28;20111;-82
2023/04/24 00:47:57;;;;;;;11.80;7.13;;;10.90;99.90;;;;;;4974857;28;20069;-83
2023/04/24 00:50:44;;;;;;;8.13;5.10;;;10.90;99.90;;;;;;4975029;28;20054;-82
2023/04/24 00:53:30;;;;;;;10.40;5.35;;;10.90;99.90;;;;;;4960170;28;20046;-83
2023/04/24 00:56:18;;;;;;;8.00;5.63;;;10.90;99.90;;;;;;4990432;28;20061;-82
2023/04/24 00:59:04;;;;;;;10.05;6.60;;;11.00;99.90;;;;;;4973768;28;20050;-83
2023/04/24 01:01:51;;;;;;;10.07;6.25;;;10.90;99.90;;;;;;4975331;28;20149;-82
2023/04/24 01:04:38;;;;;;;11.02;7.22;;;11.00;99.90;;;;;;4973010;28;20062;-81
2023/04/24 01:07:25;;;;;;;8.75;6.60;;;11.00;99.90;;;;;;4989550;28;20058;-82
2023/04/24 01:10:12;;;;;;;10.93;6.68;;;10.90;99.90;;;;;;4974453;28;20062;-81
2023/04/24 01:12:59;;;;;;;11.65;6.75;;;10.90;99.90;;;;;;4974078;28;20050;-82
2023/04/24 01:15:46;;;;;;;9.23;5.95;;;10.90;99.90;;;;;;4974122;28;20426;-82
2023/04/24 01:18:32;;;;;;;10.70;7.15;;;10.90;99.90;;;;;;4974577;28;20054;-81
2023/04/24 01:21:23;;;;;;;10.63;6.43;;;10.90;99.90;;;;;;4973885;28;20137;-81
2023/04/24 01:24:09;;;;;;;10.75;6.82;;;10.90;99.90;;;;;;4974099;28;20050;-81
2023/04/24 01:26:55;;;;;;;11.43;7.47;;;10.80;99.90;;;;;;4977325;28;20062;-81
2023/04/24 01:29:41;;;;;;;10.43;6.90;;;10.80;99.90;;;;;;4988848;28;20050;-80
2023/04/24 01:32:28;;;;;;;9.73;7.00;;;10.80;99.90;;;;;;4973547;28;20526;-81
2023/04/24 01:35:14;;;;;;;12.93;7.05;;;10.70;99.90;;;;;;4972862;28;20053;-81
2023/04/24 01:38:00;;;;;;;9.68;7.32;;;10.80;99.90;;;;;;4972640;28;20057;-81
2023/04/24 01:40:46;;;;;;;9.38;7.13;;;10.80;99.90;;;;;;4972952;28;20498;-80
2023/04/24 01:43:32;;;;;;;11.23;7.00;;;10.80;99.90;;;;;;4989017;28;20103;-80
2023/04/24 01:46:19;;;;;;;9.02;6.80;;;10.80;99.90;;;;;;4988733;28;20162;-80
2023/04/24 01:49:05;;;;;;;15.40;7.30;;;10.80;99.90;;;;;;4989084;28;20062;-81
2023/04/24 01:51:51;;;;;;;12.18;8.13;;;10.80;99.90;;;;;;4972802;28;20056;-81
2023/04/24 01:54:37;;;;;;;9.23;6.70;;;10.80;99.90;;;;;;4988601;28;20062;-80
2023/04/24 01:57:23;;;;;;;12.15;6.63;;;10.70;99.90;;;;;;4988896;28;20141;-82
2023/04/24 02:00:11;;;;;;;9.88;5.72;;;10.70;99.90;;;;;;4989169;28;20058;-82
2023/04/24 02:02:57;;;;;;;7.95;4.95;;;10.70;99.90;;;;;;4988890;28;20058;-80
2023/04/24 02:05:46;;;;;;;7.55;4.47;;;10.70;99.90;;;;;;4989886;28;20054;-81
2023/04/24 02:08:32;;;;;;;6.28;4.13;;;10.60;99.90;;;;;;4972763;28;20050;-81
2023/04/24 02:11:18;;;;;;;6.72;4.25;;;10.60;99.90;;;;;;4975302;28;20058;-81
2023/04/24 02:14:04;;;;;;;7.13;4.07;;;10.50;99.90;;;;;;4976916;28;20047;-81
2023/04/24 02:16:50;;;;;;;6.20;4.28;;;10.50;99.90;;;;;;4976324;28;20141;-81
2023/04/24 02:19:36;;;;;;;6.00;4.30;;;10.50;99.90;;;;;;4976468;28;20046;-81
2023/04/24 02:22:22;;;;;;;7.03;4.43;;;10.50;99.90;;;;;;4992685;28;20055;-82
2023/04/24 02:25:08;;;;;;;6.05;4.13;;;10.50;99.90;;;;;;4976482;28;20124;-82
2023/04/24 02:27:54;;;;;;;7.05;4.00;;;10.50;99.90;;;;;;5008816;28;20066;-82
2023/04/24 02:30:41;;;;;;;7.47;4.38;;;10.40;99.90;;;;;;5012678;28;20068;-82
2023/04/24 02:33:27;;;;;;;6.70;4.38;;;10.40;99.90;;;;;;4995198;28;20161;-81
2023/04/24 02:36:14;;;;;;;7.63;4.93;;;10.40;99.90;;;;;;4995629;28;20575;-80
2023/04/24 02:39:01;;;;;;;7.80;5.05;;;10.40;99.90;;;;;;4994835;28;20061;-81
2023/04/24 02:41:47;;;;;;;8.68;5.32;;;10.50;99.90;;;;;;4995013;28;20123;-80
2023/04/24 02:44:33;;;;;;;8.30;5.75;;;10.40;99.90;;;;;;4983379;28;20065;-81
2023/04/24 02:47:19;;;;;;;8.75;5.38;;;10.30;99.90;;;;;;4982854;28;20046;-82
2023/04/24 02:50:05;;;;;;;8.70;5.57;;;10.30;99.90;;;;;;4994842;28;20053;-82
2023/04/24 02:52:52;;;;;;;8.73;5.32;;;10.30;99.90;;;;;;4995175;28;20050;-82
2023/04/24 02:55:38;;;;;;;8.70;6.25;;;10.30;99.90;;;;;;4995475;28;20054;-81
2023/04/24 02:58:24;;;;;;;12.20;6.20;;;10.40;99.90;;;;;;4994466;28;20453;-82
2023/04/24 03:01:10;;;;;;;8.07;5.68;;;10.30;99.90;;;;;;4995317;28;20383;-82
2023/04/24 03:03:56;;;;;;;10.60;6.72;;;10.30;99.90;;;;;;4982937;28;20651;-82
2023/04/24 03:06:43;;;;;;;12.13;6.82;;;10.30;99.90;;;;;;4996398;28;20050;-81
2023/04/24 03:09:29;;;;;;;10.25;7.38;;;10.30;99.90;;;;;;4982822;28;20057;-80
2023/04/24 03:12:17;;;;;;;11.98;7.25;;;10.30;99.90;;;;;;4994782;28;20057;-81
2023/04/24 03:15:04;;;;;;;13.07;9.15;;;10.40;99.90;;;;;;4996007;28;20050;-81
2023/04/24 03:17:50;;;;;;;13.02;9.63;;;10.40;99.90;;;;;;4995275;28;20058;-81
2023/04/24 03:20:37;;;;;;;15.93;10.45;;;10.50;99.90;;;;;;4994436;28;20061;-80
2023/04/24 03:23:23;;;;;;;16.75;10.57;;;10.50;99.90;;;;;;4993482;28;20049;-82
2023/04/24 03:26:09;;;;;;;16.92;9.70;;;10.50;99.90;;;;;;5012659;28;20053;-81
2023/04/24 03:28:56;;;;;;;12.90;7.38;;;10.50;99.90;;;;;;4993715;28;20057;-80
2023/04/24 03:31:42;;;;;;;12.57;6.57;;;10.50;99.90;;;;;;4982286;28;20402;-81
2023/04/24 03:34:28;;;;;;;15.07;7.07;;;10.40;99.90;;;;;;4994320;28;20046;-82
2023/04/24 03:37:14;;;;;;;16.20;7.25;;;10.40;99.90;;;;;;4995671;28;20053;-81
2023/04/24 03:40:02;;;;;;;12.30;7.28;;;10.30;99.90;;;;;;5011655;28;20061;-81
2023/04/24 03:42:48;;;;;;;13.07;5.85;;;10.40;99.90;;;;;;5011059;28;20494;-80
2023/04/24 03:45:34;;;;;;;11.18;5.63;;;10.30;99.90;;;;;;4994523;28;20050;-81
2023/04/24 03:48:20;;;;;;;8.23;4.40;;;10.30;99.90;;;;;;4994421;28;20072;-81
2023/04/24 03:51:06;;;;;;;10.38;5.32;;;10.30;99.90;;;;;;4997171;28;20064;-80
2023/04/24 03:53:52;;;;;;;10.35;4.88;;;10.30;99.90;;;;;;4993616;28;20096;-81
2023/04/24 03:56:38;;;;;;;13.27;5.38;;;10.20;99.90;;;;;;4993957;28;20053;-82
2023/04/24 03:59:24;;;;;;;11.20;5.85;;;10.20;99.90;;;;;;4998208;28;20046;-82
2023/04/24 04:02:10;;;;;;;11.07;6.10;;;10.20;99.90;;;;;;4980907;28;20136;-82
2023/04/24 04:04:56;;;;;;;22.40;7.80;;;10.20;99.90;;;;;;4993404;28;20049;-82
2023/04/24 04:07:41;;;;;;;9.95;5.80;;;10.20;99.90;;;;;;4993463;28;20053;-81
2023/04/24 04:10:27;;;;;;;9.23;4.82;;;10.20;99.90;;;;;;4993462;28;20057;-82
2023/04/24 04:13:13;;;;;;;12.43;4.63;;;10.20;99.90;;;;;;4997396;28;20132;-82
2023/04/24 04:15:59;;;;;;;6.28;3.33;;;10.20;99.90;;;;;;4981451;28;20409;-82
2023/04/24 04:18:45;;;;;;;6.85;3.97;;;10.20;99.90;;;;;;4980380;28;20132;-82
2023/04/24 04:21:32;;;;;;;6.30;3.65;;;10.20;99.90;;;;;;4981201;28;20069;-82
2023/04/24 04:24:18;;;;;;;8.05;3.83;;;10.20;99.90;;;;;;4994633;28;20141;-81
2023/04/24 04:27:05;;;;;;;7.88;3.88;;;10.20;99.90;;;;;;4989900;28;20123;-82
2023/04/24 04:29:51;;;;;;;8.60;3.15;;;10.20;99.90;;;;;;4961313;28;20467;-82
2023/04/24 04:32:37;;;;;;;5.88;3.53;;;10.20;99.90;;;;;;4973207;28;20054;-82
2023/04/24 04:35:23;;;;;;;6.60;3.70;;;10.20;99.90;;;;;;4973220;28;20403;-82
2023/04/24 04:38:10;;;;;;;7.43;4.40;;;10.20;99.90;;;;;;4973726;28;20070;-82
2023/04/24 04:40:56;;;;;;;12.82;5.35;;;10.20;99.90;;;;;;4974183;28;20446;-80
2023/04/24 04:43:42;;;;;;;7.47;2.25;;;10.20;99.90;;;;;;4973607;28;20058;-81
2023/04/24 04:46:32;;;;;;;6.60;2.58;;;10.10;99.90;;;;;;4973490;28;20089;-82
2023/04/24 04:49:18;;;;;;;9.18;2.97;;;10.10;99.90;;;;;;4973863;28;20116;-81
2023/04/24 04:52:04;;;;;;;9.57;3.45;;;10.10;99.90;;;;;;4990263;28;20054;-82
2023/04/24 04:54:50;;;;;;;9.20;4.50;;;10.10;99.90;;;;;;4973338;28;20077;-82
2023/04/24 04:57:36;;;;;;;10.35;5.10;;;10.10;99.90;;;;;;4973133;28;20116;-82
2023/04/24 05:00:25;;;;;;;9.95;4.13;;;10.10;99.90;;;;;;4973087;28;20057;-82
2023/04/24 05:03:11;;;;;;;11.93;4.05;;;10.00;99.90;;;;;;4973647;28;20050;-82
2023/04/24 05:05:58;;;;;;;8.80;3.13;;;10.00;99.90;;;;;;4990455;28;20050;-82
2023/04/24 05:08:44;;;;;;;9.35;3.28;;;10.00;99.90;;;;;;4973437;28;20057;-81
2023/04/24 05:11:30;;;;;;;4.88;2.50;;;10.00;99.90;;;;;;4972946;28;20061;-82
2023/04/24 05:14:17;;;;;;;7.13;2.25;;;10.00;99.90;;;;;;4959553;28;20422;-81
2023/04/24 05:17:03;;;;;;;6.50;2.10;;;10.00;99.90;;;;;;4959109;28;20124;-83
2023/04/24 05:19:49;;;;;;;7.28;1.83;;;10.00;99.90;;;;;;4972836;28;20093;-81
2023/04/24 05:22:35;;;;;;;6.53;2.17;;;10.00;99.90;;;;;;4973012;28;20590;-81
2023/04/24 05:25:22;;;;;;;8.45;2.08;;;10.10;99.90;;;;;;4973031;28;20085;-82
2023/04/24 05:28:08;;;;;;;7.07;2.47;;;10.10;99.90;;;;;;4986416;28;20133;-81
2023/04/24 05:30:59;;;;;;;8.73;2.90;;;10.00;99.90;;;;;;4991660;28;20125;-81
2023/04/24 05:33:45;;;;;;;6.15;2.60;;;10.10;99.90;;;;;;4989513;28;20046;-81
2023/04/24 05:36:31;;;;;;;7.30;2.70;;;10.10;99.90;;;;;;4989277;28;20047;-81
2023/04/24 05:39:18;;;;;;;8.68;2.40;;;10.10;99.90;;;;;;4989257;28;20061;-81
2023/04/24 05:42:04;;;;;;;7.60;2.45;;;10.10;99.90;;;;;;4990178;28;20108;-82
2023/04/24 05:44:50;;;;;;;4.72;2.20;;;10.00;99.90;;;;;;4976139;28;20064;-82
2023/04/24 05:47:36;;;;;;;7.75;2.20;;;10.00;99.90;;;;;;4990200;28;20057;-81
2023/04/24 05:50:22;;;;;;;7.55;2.85;;;10.00;99.90;;;;;;4989064;28;20553;-81
2023/04/24 05:53:10;;;;;;;9.15;2.25;;;10.00;99.90;;;;;;4990204;28;20506;-81
2023/04/24 05:55:56;;;;;;;6.63;2.22;;;10.00;99.90;;;;;;4988915;28;20054;-81
2023/04/24 05:58:42;;;;;;;9.48;2.20;;;10.00;99.90;;;;;;4988790;28;20050;-83
2023/04/24 06:01:28;;;;;;;10.82;2.53;;;10.00;99.90;;;;;;5004806;28;20057;-81
2023/04/24 06:04:14;;;;;;;7.43;2.30;;;10.00;99.90;;;;;;4976058;28;20100;-82
2023/04/24 06:07:00;;;;;;;5.85;1.80;;;10.00;99.90;;;;;;4989911;28;20055;-82
2023/04/24 06:09:47;;;;;;;5.82;1.63;;;10.00;99.90;;;;;;4988428;28;20137;-81
2023/04/24 06:12:33;;;;;;;6.43;1.58;;;10.10;99.90;;;;;;4989272;28;20054;-82
2023/04/24 06:15:19;;;;;;;4.68;1.52;;;10.10;99.90;;;;;;4988777;28;20061;-82
2023/04/24 06:18:05;;;;;;;6.10;1.58;;;10.10;99.90;;;;;;4989218;28;20840;-83
2023/04/24 06:20:51;;;;;;;6.05;1.33;;;10.10;99.90;;;;;;4976063;28;20101;-81
2023/04/24 06:23:37;;;;;;;3.75;1.50;;;10.10;99.90;;;;;;4989037;28;20433;-83
2023/04/24 06:26:26;;;;;;;4.03;1.25;;;10.10;99.90;;;;;;4992227;28;20068;-83
2023/04/24 06:29:12;;;;;;;4.82;1.90;;;10.10;99.90;;;;;;4992884;28;20414;-82
2023/04/24 06:31:58;;;;;;;4.15;1.33;;;10.00;99.90;;;;;;4992347;28;20486;-82
2023/04/24 06:34:44;;;;;;;8.95;2.10;;;10.00;99.90;;;;;;4979922;28;20414;-82
2023/04/24 06:37:30;;;;;;;5.43;2.58;;;10.00;99.90;;;;;;4992010;28;20413;-84
2023/04/24 06:40:18;;;;;;;5.85;2.22;;;10.00;99.90;;;;;;4991275;28;20049;-83
2023/04/24 06:43:04;;;;;;;5.68;1.40;;;10.00;99.90;;;;;;4991867;28;20104;-83
2023/04/24 06:45:50;;;;;;;8.80;1.95;;;10.00;99.90;;;;;;4991967;28;20054;-81
2023/04/24 06:48:36;;;;;;;5.32;1.33;;;9.90;99.90;;;;;;4991287;28;20061;-82
2023/04/24 06:51:26;;;;;;;4.88;1.20;;;10.00;99.90;;;;;;4995551;28;20049;-83
2023/04/24 06:54:12;;;;;;;5.97;1.48;;;9.90;99.90;;;;;;4991134;28;20060;-81
2023/04/24 06:57:00;;;;;;;3.17;0.90;;;9.90;99.90;;;;;;5007035;28;20059;-82
2023/04/24 06:59:46;;;;;;;5.30;1.60;;;9.80;99.90;;;;;;4997520;28;20058;-82
2023/04/24 07:02:32;;;;;;;6.15;1.70;;;9.90;99.90;;;;;;4994583;28;20053;-81
2023/04/24 07:05:21;;;;;;;7.10;2.00;;;9.80;99.90;;;;;;4994757;28;20156;-81
2023/04/24 07:08:08;;;;;;;9.70;2.70;;;9.80;99.90;;;;;;5012765;28;20057;-82
2023/04/24 07:10:54;;;;;;;9.68;3.55;;;9.80;99.90;;;;;;4995963;28;20054;-80
2023/04/24 07:13:41;;;;;;;15.73;6.20;;;9.80;99.90;;;;;;4994613;28;20057;-82
2023/04/24 07:16:28;;;;;;;15.50;8.15;;;9.80;99.90;;;;;;4994608;28;20093;-81
2023/04/24 07:19:14;;;;;;;15.40;6.75;;;9.80;99.90;;;;;;4994809;28;20054;-81
2023/04/24 07:22:00;;;;;;;17.75;8.05;;;9.80;99.90;;;;;;4982441;28;20056;-83
2023/04/24 07:24:46;;;;;;;16.33;8.98;;;9.80;99.90;;;;;;4993989;28;20054;-81
2023/04/24 07:27:32;;;;;;;21.50;10.95;;;9.80;99.90;;;;;;5011249;28;20137;-81
2023/04/24 07:30:19;;;;;;;26.13;11.75;;;9.80;99.90;;;;;;4981748;28;20120;-81
2023/04/24 07:33:06;;;;;;;25.35;11.65;;;9.80;99.90;;;;;;4994626;28;20050;-82
2023/04/24 07:35:52;;;;;;;22.33;11.05;;;9.80;99.90;;;;;;4995617;28;20196;-82
2023/04/24 07:38:38;;;;;;;19.05;10.68;;;9.80;99.90;;;;;;4995171;28;20144;-82
2023/04/24 07:41:25;;;;;;;36.85;11.55;;;9.80;99.90;;;;;;4993733;28;20049;-81
2023/04/24 07:44:11;;;;;;;22.80;11.57;;;9.80;99.90;;;;;;4995381;28;20137;-81
2023/04/24 07:46:57;;;;;;;22.83;10.45;;;9.80;99.90;;;;;;4995226;28;20524;-81
2023/04/24 07:49:43;;;;;;;26.15;10.90;;;9.80;99.90;;;;;;4995605;28;20076;-82
2023/04/24 07:52:30;;;;;;;19.25;10.35;;;9.80;99.90;;;;;;4995196;28;20057;-81
2023/04/24 07:55:16;;;;;;;22.65;9.65;;;9.80;99.90;;;;;;4995640;28;20058;-83
2023/04/24 07:58:02;;;;;;;21.98;9.43;;;9.70;99.90;;;;;;4981033;28;20498;-82
2023/04/24 08:00:48;;;;;;;22.83;8.88;;;9.70;99.90;;;;;;4995687;28;20482;-81
2023/04/24 08:03:34;;;;;;;15.00;8.63;;;9.70;99.90;;;;;;4995527;28;20077;-82
2023/04/24 08:06:20;;;;;;;18.52;7.32;;;9.70;99.90;;;;;;4992997;28;20569;-82
2023/04/24 08:09:06;;;;;;;19.27;7.82;;;9.70;99.90;;;;;;4993376;28;20453;-81
2023/04/24 08:11:53;;;;;;;21.63;7.88;;;9.60;99.90;;;;;;5012709;28;20490;-81
2023/04/24 08:14:39;;;;;;;18.58;7.75;;;9.60;99.90;;;;;;4981777;28;20141;-83
2023/04/24 08:17:25;;;;;;;18.00;7.90;;;9.60;99.90;;;;;;4993179;28;20212;-81
2023/04/24 08:20:14;;;;;;;14.52;6.80;;;9.60;99.90;;;;;;4994224;28;20068;-81
2023/04/24 08:23:00;;;;;;;16.55;7.82;;;9.60;99.90;;;;;;4994050;28;20608;-82
2023/04/24 08:25:46;;;;;;;15.90;7.60;;;9.70;99.90;;;;;;4981033;28;20201;-81
2023/04/24 08:28:32;;;;;;;14.38;7.43;;;9.70;99.90;;;;;;4992945;28;20068;-82
2023/04/24 08:31:18;;;;;;;21.50;8.23;;;9.70;99.90;;;;;;4993280;28;20553;-82
2023/04/24 08:34:05;;;;;;;17.63;6.57;;;9.80;99.90;;;;;;4993005;28;20084;-81
2023/04/24 08:36:51;;;;;;;11.48;5.15;;;9.80;99.90;;;;;;4993452;28;20148;-81
2023/04/24 08:39:37;;;;;;;14.02;5.05;;;9.90;99.90;;;;;;5010658;28;20802;-82
2023/04/24 08:42:24;;;;;;;11.02;4.70;;;9.90;99.90;;;;;;4994154;28;20096;-83
2023/04/24 08:45:12;;;;;;;13.68;5.32;;;10.00;99.90;;;;;;4995007;28;20053;-81
2023/04/24 08:47:59;;;;;;;8.23;3.97;;;10.00;99.90;;;;;;4994529;28;20116;-80
2023/04/24 08:50:45;;;;;;;10.88;4.78;;;10.00;99.90;;;;;;4993945;28;20071;-79
2023/04/24 08:53:33;;;;;;;11.65;4.13;;;10.10;99.90;;;;;;5010316;28;20037;-82
2023/04/24 08:56:23;;;;;;;11.82;3.53;;;10.20;99.90;;;;;;5010666;28;20472;-80
2023/04/24 08:59:09;;;;;;;13.45;7.00;;;10.20;99.90;;;;;;5011003;28;20041;-80
2023/04/24 09:01:56;;;;;;;11.20;4.45;;;10.20;99.90;;;;;;4996621;28;20045;-81
2023/04/24 09:04:44;;;;;;;12.95;5.22;;;10.20;99.90;;;;;;4992452;28;20144;-81
2023/04/24 09:07:33;;;;;;;13.88;4.78;;;10.10;99.90;;;;;;5008532;28;20107;-81
2023/04/24 09:10:21;;;;;;;14.35;4.57;;;10.00;99.90;;;;;;4979195;28;20086;-80
2023/04/24 09:13:11;;;;;;;19.02;4.82;;;10.00;99.90;;;;;;4992744;28;20092;-80
2023/04/24 09:15:57;;;;;;;15.10;3.88;;;10.10;99.90;;;;;;4981218;28;20100;-80
2023/04/24 09:18:43;;;;;;;16.13;4.28;;;10.10;99.90;;;;;;4992058;28;20049;-82
2023/04/24 09:21:34;;;;;;;11.68;4.05;;;10.30;99.90;;;;;;4991655;28;20141;-82
2023/04/24 09:24:24;;;;;;;12.20;3.45;;;10.40;99.90;;;;;;4992224;28;20058;-81
2023/04/24 09:27:12;;;;;;;8.90;2.92;;;10.50;99.90;;;;;;4992617;28;20097;-82
2023/04/24 09:29:59;;;;;;;7.47;2.85;;;10.80;99.90;;;;;;4993619;28;20081;-80
2023/04/24 09:32:45;;;;;;;12.73;3.85;;;11.00;99.90;;;;;;4992314;28;20045;-83
2023/04/24 09:35:32;;;;;;;9.82;3.50;;;11.30;99.90;;;;;;5009649;28;20050;-81
2023/04/24 09:38:18;;;;;;;12.43;3.20;;;11.70;99.90;;;;;;4991512;28;20057;-83
2023/04/24 09:41:08;;;;;;;12.18;3.13;;;11.80;99.90;;;;;;5008496;28;20057;-81
2023/04/24 09:43:56;;;;;;;13.27;3.47;;;11.80;99.90;;;;;;4992653;28;20501;-81
2023/04/24 09:46:44;;;;;;;10.55;2.83;;;11.70;99.90;;;;;;4993073;28;20049;-81
2023/04/24 09:49:37;;;;;;;9.27;3.17;;;11.80;99.90;;;;;;4991794;28;20502;-82
2023/04/24 09:52:24;;;;;;;9.25;3.05;;;11.70;99.90;;;;;;5010827;28;20064;-82
2023/04/24 09:55:19;;;;;;;7.38;1.98;;;11.80;99.90;;;;;;4997009;28;20405;-83
2023/04/24 09:58:07;;;;;;;6.00;1.85;;;11.60;99.90;;;;;;4991555;28;20548;-82
2023/04/24 10:00:57;;;;;;;6.28;2.05;;;11.90;99.90;;;;;;4991921;28;20138;-82
2023/04/24 10:03:44;;;;;;;8.15;2.63;;;12.10;99.90;;;;;;4996526;28;20053;-82
2023/04/24 10:06:34;;;;;;;11.65;2.67;;;12.20;99.90;;;;;;4993292;28;20773;-81
2023/04/24 10:09:23;;;;;;;13.40;2.50;;;12.30;99.90;;;;;;5010332;28;20057;-83
2023/04/24 10:12:09;;;;;;;8.85;2.78;;;12.30;99.90;;;;;;5009496;28;20057;-82
2023/04/24 10:14:56;;;;;;;9.05;2.17;;;12.30;99.90;;;;;;4991626;28;20053;-82
2023/04/24 10:17:44;;;;;;;6.32;2.13;;;12.20;99.90;;;;;;4992091;28;20062;-81
2023/04/24 10:20:33;;;;;;;12.32;2.70;;;12.00;99.90;;;;;;4979095;28;20049;-82
2023/04/24 10:23:19;;;;;;;9.52;2.00;;;11.90;99.90;;;;;;4992588;28;20057;-81
2023/04/24 10:26:06;;;;;;;10.57;2.38;;;11.90;99.90;;;;;;5009588;28;20046;-82
2023/04/24 10:28:53;;;;;;;9.23;2.35;;;11.70;99.90;;;;;;4971196;28;20050;-82
2023/04/24 10:31:40;;;;;;;10.38;2.90;;;11.50;99.90;;;;;;4992387;28;20144;-82
2023/04/24 10:34:27;;;;;;;11.75;2.67;;;11.60;99.90;;;;;;4975677;28;20526;-83
2023/04/24 10:37:14;;;;;;;9.10;2.33;;;11.60;99.90;;;;;;4962445;28;20375;-82
2023/04/24 10:40:03;;;;;;;9.70;2.40;;;11.70;99.90;;;;;;4994117;28;20129;-81
2023/04/24 10:42:53;;;;;;;12.43;2.10;;;11.70;99.90;;;;;;4975971;28;20061;-81
2023/04/24 10:45:39;;;;;;;13.93;2.90;;;11.70;99.90;;;;;;4975224;28;20054;-84
2023/04/24 10:48:27;;;;;;;7.97;2.08;;;11.80;99.90;;;;;;4975411;28;20051;-81
2023/04/24 10:51:14;;;;;;;10.30;2.10;;;11.80;99.90;;;;;;4977261;28;20100;-82
2023/04/24 10:54:19;;;;;;;14.35;2.22;;;11.80;99.90;;;;;;4994158;28;20502;-83
2023/04/24 10:57:18;;;;;;;10.75;2.45;;;11.90;99.90;;;;;;4976201;28;20058;-81
2023/04/24 11:00:20;;;;;;;9.52;2.20;;;11.90;99.90;;;;;;4975311;28;20510;-80
2023/04/24 11:03:29;;;;;;;12.10;2.38;;;11.90;99.90;;;;;;4977127;28;20065;-82
2023/04/24 11:06:15;;;;;;;15.25;2.72;;;11.90;99.90;;;;;;4975897;28;20054;-80
2023/04/24 11:09:07;;;;;;;9.82;1.90;;;11.70;99.90;;;;;;4975331;28;20182;-84
2023/04/24 11:12:10;;;;;;;11.77;2.65;;;11.70;99.90;;;;;;4994336;28;20046;-82
2023/04/24 11:14:57;;;;;;;10.88;1.88;;;11.50;99.90;;;;;;4975545;28;20046;-81
2023/04/24 11:17:43;;;;;;;10.27;1.80;;;11.40;99.90;;;;;;4975309;28;20054;-81
2023/04/24 11:20:30;;;;;;;9.95;2.00;;;11.30;99.90;;;;;;4975796;28;20058;-81
2023/04/24 11:23:18;;;;;;;11.55;1.95;;;11.20;99.90;;;;;;4964075;28;20089;-81
2023/04/24 11:26:12;;;;;;;7.43;2.15;;;11.20;99.90;;;;;;4975183;28;20105;-81
2023/04/24 11:29:08;;;;;;;12.57;1.95;;;11.20;99.90;;;;;;5013189;28;20081;-83
2023/04/24 11:31:54;;;;;;;8.20;2.13;;;11.20;99.90;;;;;;4994821;28;20054;-85
2023/04/24 11:34:40;;;;;;;11.40;2.28;;;11.20;99.90;;;;;;4994554;28;20050;-80
2023/04/24 11:37:47;;;;;;;13.05;2.60;;;11.10;99.90;;;;;;5012072;28;20561;-80
2023/04/24 11:40:33;;;;;;;11.35;1.55;;;11.10;99.90;;;;;;5013265;28;20050;-82
2023/04/24 11:43:20;;;;;;;7.75;1.25;;;10.90;99.90;;;;;;4993415;28;20056;-83
2023/04/24 11:46:07;;;;;;;6.40;0.95;;;10.80;99.90;;;;;;4994979;28;20057;-82
2023/04/24 11:48:53;;;;;;;5.97;1.13;;;10.80;99.90;;;;;;5011385;28;20045;-82
2023/04/24 11:51:39;;;;;;;11.02;1.50;;;10.80;99.90;;;;;;4981640;28;20050;-81
2023/04/24 11:54:25;;;;;;;7.97;1.40;;;10.90;99.90;;;;;;4995553;28;20053;-82
2023/04/24 11:57:11;;;;;;;5.90;1.63;;;10.90;99.90;;;;;;4994684;28;20089;-82
2023/04/24 11:59:58;;;;;;;10.10;1.58;;;11.00;99.90;;;;;;5012021;28;20052;-82
2023/04/24 12:02:44;;;;;;;8.32;1.90;;;11.10;99.90;;;;;;4993736;28;20100;-82
2023/04/24 12:05:33;;;;;;;6.07;1.00;;;11.20;99.90;;;;;;4994638;28;20054;-83
2023/04/24 12:08:29;;;;;;;9.20;1.75;;;11.10;99.90;;;;;;4993540;28;20124;-82
2023/04/24 12:11:17;;;;;;;8.60;1.45;;;11.10;99.90;;;;;;4995136;28;20521;-81
2023/04/24 12:14:11;;;;;;;10.82;1.77;;;10.90;99.90;;;;;;4993000;28;20087;-83
2023/04/24 12:16:57;;;;;;;10.00;2.00;;;10.80;99.90;;;;;;4993091;28;20605;-82
2023/04/24 12:19:48;;;;;;;6.70;1.20;;;10.70;99.90;;;;;;4994973;28;20169;-81
2023/04/24 12:22:45;;;;;;;9.48;1.13;;;10.60;99.90;;;;;;4993813;28;20461;-81
2023/04/24 12:25:32;;;;;;;5.88;0.82;;;10.80;99.90;;;;;;4994934;28;20053;-83
2023/04/24 12:28:18;;;;;;;8.52;1.02;;;10.80;99.90;;;;;;4980636;28;20046;-83
2023/04/24 12:31:06;;;;;;;10.02;1.33;;;10.70;99.90;;;;;;4992884;28;20085;-81
2023/04/24 12:33:52;;;;;;;6.97;1.73;;;10.60;99.90;;;;;;4981272;28;20054;-82
2023/04/24 12:36:38;;;;;;;6.30;1.08;;;10.50;99.90;;;;;;4992510;28;20053;-82
2023/04/24 12:39:26;;;;;;;10.07;1.42;;;10.50;99.90;;;;;;5008401;28;20064;-81
2023/04/24 12:42:14;;;;;;;5.68;0.98;;;10.50;99.90;;;;;;4981411;28;20506;-82
2023/04/24 12:45:03;;;;;;;7.70;1.30;;;10.50;99.90;;;;;;4997064;28;20524;-82
2023/04/24 12:47:50;;;;;;;7.05;0.75;;;10.50;99.90;;;;;;4993356;28;20061;-81
2023/04/24 12:50:36;;;;;;;8.52;0.90;;;10.50;99.90;;;;;;4992922;28;20486;-81
2023/04/24 12:53:22;;;;;;;8.30;2.08;;;10.40;99.90;;;;;;4979380;28;20415;-82
2023/04/24 12:56:11;;;;;;;8.23;1.30;;;10.20;99.90;;;;;;4996449;28;20441;-81
2023/04/24 12:58:57;;;;;;;7.70;1.00;;;10.10;99.90;;;;;;4980973;28;20053;-80
2023/04/24 13:01:43;;;;;;;7.35;1.20;;;10.10;99.90;;;;;;4992110;28;20486;-83
2023/04/24 13:04:29;;;;;;;4.70;0.90;;;10.10;99.90;;;;;;4997399;28;20143;-82
2023/04/24 13:07:15;;;;;;;11.10;1.00;;;10.30;99.90;;;;;;4992940;28;20050;-82
2023/04/24 13:10:02;;;;;;;8.10;0.88;;;10.40;99.90;;;;;;5011397;28;20061;-82
2023/04/24 13:12:48;;;;;;;4.85;0.90;;;10.50;99.90;;;;;;4992507;28;20065;-82
2023/04/24 13:15:35;;;;;;;5.00;0.90;;;10.80;99.90;;;;;;4992093;28;20056;-81
2023/04/24 13:18:21;;;;;;;4.57;1.15;;;11.00;99.90;;;;;;4979623;28;20406;-80
2023/04/24 13:21:07;;;;;;;9.63;1.55;;;11.10;99.90;;;;;;4993968;28;20548;-81
2023/04/24 13:23:53;;;;;;;8.15;1.58;;;11.30;99.90;;;;;;4992044;28;20805;-83
2023/04/24 13:26:39;;;;;;;8.35;1.88;;;11.40;99.90;;;;;;5011263;28;20061;-82
2023/04/24 13:29:25;;;;;;;6.22;1.45;;;11.30;99.90;;;;;;4977985;28;20046;-81
2023/04/24 13:32:11;;;;;;;4.10;1.23;;;10.90;99.90;;;;;;4991678;28;20056;-81
2023/04/24 13:34:57;;;;;;;5.72;1.48;;;10.60;99.90;;;;;;4991663;28;20056;-82
2023/04/24 13:37:43;;;;;;;9.13;1.50;;;10.30;99.90;;;;;;4980574;28;20092;-82
2023/04/24 13:40:29;;;;;;;7.70;1.77;;;10.00;99.90;;;;;;4992557;28;20529;-81
2023/04/24 13:43:16;;;;;;;10.02;1.75;;;9.80;99.90;;;;;;4991937;28;20049;-81
2023/04/24 13:46:02;;;;;;;8.20;2.05;;;9.80;99.90;;;;;;4979885;28;20058;-81
2023/04/24 13:48:48;;;;;;;10.48;2.13;;;9.80;99.90;;;;;;4991794;28;20108;-81
2023/04/24 13:51:35;;;;;;;7.95;2.00;;;9.70;99.90;;;;;;4991609;28;20092;-81
2023/04/24 13:54:23;;;;;;;8.80;2.58;;;9.60;99.90;;;;;;4991916;28;20057;-81
2023/04/24 13:57:09;;;;;;;7.13;2.85;;;9.70;99.90;;;;;;4991434;28;20120;-80
2023/04/24 14:00:00;;;;;;;12.75;3.55;;;9.80;99.90;;;;;;4993600;28;20046;-80
2023/04/24 14:02:47;;;;;;;15.63;2.70;;;9.90;99.90;;;;;;4993003;28;20483;-83
2023/04/24 14:05:33;;;;;;;15.82;2.78;;;9.80;99.90;;;;;;4991814;28;20390;-82
2023/04/24 14:08:19;;;;;;;14.57;3.25;;;9.80;99.90;;;;;;5013601;28;20064;-82
2023/04/24 14:11:05;;;;;;;8.82;3.08;;;9.70;99.90;;;;;;4996877;28;20120;-81
2023/04/24 14:13:51;;;;;;;39.45;6.00;;;9.60;99.90;;;;;;5015102;28;20054;-80
2023/04/24 14:16:37;;;;;;;14.75;3.13;;;9.60;99.90;;;;;;4997271;28;20253;-81
2023/04/24 14:19:24;;;;;;;15.70;3.00;;;9.60;99.90;;;;;;5014853;28;20050;-82
2023/04/24 14:22:10;;;;;;;17.52;3.58;;;9.60;99.90;;;;;;4994906;28;20162;-79
2023/04/24 14:24:56;;;;;;;12.75;3.78;;;9.50;99.90;;;;;;5014892;28;20062;-80